Time;durP1;ratioP1;P1;durP2;ratioP2;P2;SDS_P1;SDS_P2;PMS_P1;PMS_P2;Temp;Humidity;BMP_temperature;BMP_pressure;BME280_temperature;BME280_humidity;BME280_pressure;Samples;Min_cycle;Max_cycle;Signal;HPM_P1;HPM_P2
2023/10/20 00:00:34;;;;;;;11.38;6.32;;;24.50;99.90;;;;;;5029698;28;20197;-79
2023/10/20 00:03:11;;;;;;;15.98;5.80;;;24.50;99.90;;;;;;5028863;28;20206;-78
2023/10/20 00:05:53;;;;;;;13.43;5.78;;;24.50;99.90;;;;;;5041342;28;20208;-77
2023/10/20 00:08:34;;;;;;;10.65;6.15;;;24.50;99.90;;;;;;5018514;28;20198;-80
2023/10/20 00:11:12;;;;;;;10.38;6.45;;;24.50;99.90;;;;;;5028479;28;20225;-78
2023/10/20 00:13:47;;;;;;;8.90;6.18;;;24.40;99.90;;;;;;5030756;28;20662;-79
2023/10/20 00:16:26;;;;;;;12.73;7.15;;;24.50;99.90;;;;;;5027890;28;20223;-79
2023/10/20 00:19:03;;;;;;;13.32;6.97;;;24.50;99.90;;;;;;5029979;28;20307;-78
2023/10/20 00:24:05;;;;;;;9.85;6.40;;;24.60;99.90;;;;;;5035878;28;20643;-81
2023/10/20 00:26:39;;;;;;;19.27;7.65;;;24.60;99.90;;;;;;5038469;28;20283;-80
2023/10/20 00:29:11;;;;;;;13.25;8.13;;;24.70;99.90;;;;;;5048808;28;20664;-79
2023/10/20 00:31:51;;;;;;;12.77;8.60;;;24.80;99.90;;;;;;5041665;28;20232;-81
2023/10/20 00:34:30;;;;;;;13.50;8.05;;;24.80;99.90;;;;;;5021172;28;20219;-79
2023/10/20 00:37:07;;;;;;;14.02;8.05;;;25.00;99.90;;;;;;5017525;28;20567;-80
2023/10/20 00:39:38;;;;;;;14.45;8.05;;;25.00;99.90;;;;;;5050814;28;20205;-80
2023/10/20 00:42:09;;;;;;;10.88;8.15;;;25.10;99.90;;;;;;5048586;22;20244;-80
2023/10/20 00:44:40;;;;;;;12.88;7.93;;;25.10;99.90;;;;;;5044966;28;20890;-79
2023/10/20 00:47:14;;;;;;;17.52;8.10;;;25.10;99.90;;;;;;5058158;28;20217;-78
2023/10/20 00:49:54;;;;;;;12.52;7.53;;;25.20;99.90;;;;;;5046081;28;20243;-77
2023/10/20 00:52:32;;;;;;;14.50;8.30;;;25.30;99.90;;;;;;5042339;28;20224;-79
2023/10/20 00:55:07;;;;;;;17.63;9.13;;;25.30;99.90;;;;;;5079122;22;20553;-79
2023/10/20 00:57:43;;;;;;;18.05;9.10;;;25.30;99.90;;;;;;5038587;28;20683;-79
2023/10/20 01:00:20;;;;;;;14.45;8.98;;;25.40;99.90;;;;;;5046439;28;20282;-77
2023/10/20 01:05:54;;;;;;;13.40;8.68;;;25.10;99.90;;;;;;5165790;22;20291;-78
2023/10/20 01:08:39;;;;;;;16.67;9.40;;;25.00;99.90;;;;;;5003265;28;20541;-78
2023/10/20 01:11:24;;;;;;;12.35;9.20;;;24.90;99.90;;;;;;5003435;28;20230;-78
2023/10/20 01:14:26;;;;;;;18.08;10.18;;;24.90;99.90;;;;;;5012090;28;20300;-77
2023/10/20 01:17:01;;;;;;;16.63;10.55;;;25.00;99.90;;;;;;5011038;28;20274;-80
2023/10/20 01:19:42;;;;;;;15.68;10.25;;;25.10;99.90;;;;;;5006227;28;20222;-77
2023/10/20 01:22:15;;;;;;;12.50;10.20;;;25.10;99.90;;;;;;5013569;28;20209;-79
2023/10/20 01:25:29;;;;;;;15.15;10.65;;;25.20;99.90;;;;;;5015918;28;20206;-79
2023/10/20 01:28:02;;;;;;;19.23;10.57;;;25.40;99.90;;;;;;5001541;28;20225;-78
2023/10/20 01:30:34;;;;;;;14.63;10.43;;;25.30;99.90;;;;;;5014121;28;20264;-78
2023/10/20 01:33:09;;;;;;;15.65;11.57;;;25.20;99.90;;;;;;5014710;28;20671;-77
2023/10/20 01:35:44;;;;;;;14.70;10.77;;;25.00;99.90;;;;;;5012973;28;20213;-80
2023/10/20 01:38:15;;;;;;;14.45;11.15;;;25.00;99.90;;;;;;5004874;28;20280;-79
2023/10/20 01:40:52;;;;;;;15.95;10.98;;;25.10;99.90;;;;;;5018856;28;20245;-79
2023/10/20 01:43:29;;;;;;;16.42;11.05;;;25.10;99.90;;;;;;5012749;28;20586;-77
2023/10/20 01:46:04;;;;;;;18.95;11.88;;;25.20;99.90;;;;;;5029013;28;20231;-79
2023/10/20 01:48:36;;;;;;;16.15;11.40;;;25.20;99.90;;;;;;5018207;28;20264;-79
2023/10/20 01:51:07;;;;;;;16.85;11.18;;;25.10;99.90;;;;;;5025355;28;20218;-79
2023/10/20 01:53:39;;;;;;;13.57;10.63;;;25.10;99.90;;;;;;5028040;28;20210;-78
2023/10/20 01:56:16;;;;;;;16.67;11.93;;;25.20;99.90;;;;;;5014684;28;20248;-79
2023/10/20 01:58:51;;;;;;;17.40;11.57;;;25.20;99.90;;;;;;5016777;28;20201;-79
2023/10/20 02:01:22;;;;;;;16.25;11.75;;;25.20;99.90;;;;;;5007933;28;20213;-80
2023/10/20 02:03:54;;;;;;;14.98;11.95;;;25.10;99.90;;;;;;5008251;28;20233;-79
2023/10/20 02:06:25;;;;;;;15.80;12.80;;;25.40;99.90;;;;;;5006971;28;20222;-80
2023/10/20 02:08:58;;;;;;;17.02;12.63;;;25.40;99.90;;;;;;5013771;28;20224;-80
2023/10/20 02:11:34;;;;;;;15.63;11.93;;;25.70;99.90;;;;;;5005297;28;20229;-79
2023/10/20 02:14:06;;;;;;;15.82;12.68;;;25.90;99.90;;;;;;5013404;28;20248;-81
2023/10/20 02:16:37;;;;;;;18.13;11.80;;;26.10;99.90;;;;;;5014923;28;20202;-79
2023/10/20 02:19:08;;;;;;;17.50;12.30;;;26.10;99.90;;;;;;5015263;28;20198;-79
2023/10/20 02:21:41;;;;;;;16.40;11.32;;;26.20;99.90;;;;;;4999085;28;20513;-78
2023/10/20 02:24:13;;;;;;;18.73;12.40;;;26.20;99.90;;;;;;5004449;28;20213;-79
2023/10/20 02:26:46;;;;;;;18.00;12.07;;;26.20;99.90;;;;;;5007128;28;20210;-79
2023/10/20 02:29:22;;;;;;;17.20;12.40;;;26.30;99.90;;;;;;5006526;28;20209;-80
2023/10/20 02:31:57;;;;;;;19.35;12.10;;;26.30;99.90;;;;;;5001799;28;20242;-80
2023/10/20 02:34:30;;;;;;;12.23;9.90;;;26.30;99.90;;;;;;5007710;28;20658;-79
2023/10/20 02:37:02;;;;;;;14.68;10.10;;;26.30;99.90;;;;;;4996838;28;20561;-80
2023/10/20 02:39:36;;;;;;;13.57;9.35;;;26.30;99.90;;;;;;5000097;28;20210;-81
2023/10/20 02:42:12;;;;;;;14.82;9.15;;;26.20;99.90;;;;;;5019244;28;20233;-80
2023/10/20 02:44:43;;;;;;;11.00;7.88;;;26.10;99.90;;;;;;5019019;28;20201;-80
2023/10/20 02:47:17;;;;;;;12.80;8.20;;;26.10;99.90;;;;;;5015318;28;20210;-80
2023/10/20 02:49:51;;;;;;;15.75;8.63;;;26.10;99.90;;;;;;5015381;28;20214;-81
2023/10/20 02:52:29;;;;;;;13.88;9.07;;;26.10;99.90;;;;;;5027106;28;20238;-80
2023/10/20 02:55:06;;;;;;;10.13;8.45;;;26.00;99.90;;;;;;5025217;28;20208;-79
2023/10/20 02:57:51;;;;;;;14.57;8.88;;;26.00;99.90;;;;;;5018114;28;20202;-80
2023/10/20 03:03:25;;;;;;;12.48;8.57;;;26.40;99.90;;;;;;5041763;22;20640;-81
2023/10/20 03:06:05;;;;;;;13.45;8.43;;;26.50;99.90;;;;;;5035313;28;20204;-79
2023/10/20 03:08:39;;;;;;;14.00;9.45;;;26.40;99.90;;;;;;5043935;28;20270;-80
2023/10/20 03:14:02;;;;;;;13.32;8.70;;;26.20;99.90;;;;;;5032166;28;20201;-80
2023/10/20 03:16:47;;;;;;;11.05;8.50;;;26.20;99.90;;;;;;5053721;22;20295;-80
2023/10/20 03:19:51;;;;;;;14.43;8.25;;;26.20;99.90;;;;;;5053382;28;20216;-79
2023/10/20 03:22:22;;;;;;;15.45;8.13;;;26.10;99.90;;;;;;5056120;28;20208;-81
2023/10/20 03:24:53;;;;;;;10.55;8.43;;;26.10;99.90;;;;;;5054141;28;20565;-81
2023/10/20 03:27:31;;;;;;;13.75;8.25;;;26.10;99.90;;;;;;5025553;28;20670;-81
2023/10/20 03:30:27;;;;;;;12.90;7.88;;;26.00;99.90;;;;;;5043361;28;20220;-81
2023/10/20 03:33:03;;;;;;;14.18;8.38;;;26.10;99.90;;;;;;5054567;28;20228;-80
2023/10/20 03:35:34;;;;;;;11.95;8.23;;;26.20;99.90;;;;;;5057688;28;20223;-80
2023/10/20 03:38:10;;;;;;;13.88;8.18;;;26.20;99.90;;;;;;5056481;28;20298;-79
2023/10/20 03:40:46;;;;;;;11.45;7.45;;;26.20;99.90;;;;;;5048182;28;20698;-79
2023/10/20 03:43:34;;;;;;;12.43;7.40;;;26.20;99.90;;;;;;5057851;28;20238;-80
2023/10/20 03:46:10;;;;;;;13.88;7.90;;;26.30;99.90;;;;;;5057426;28;20204;-80
2023/10/20 03:48:48;;;;;;;10.02;7.30;;;26.10;99.90;;;;;;5039990;28;20215;-81
2023/10/20 03:51:21;;;;;;;11.10;6.55;;;26.10;99.90;;;;;;5030085;28;20208;-80
2023/10/20 03:53:54;;;;;;;10.77;7.15;;;26.00;99.90;;;;;;5053542;28;20205;-80
2023/10/20 03:56:34;;;;;;;9.70;6.38;;;26.10;99.90;;;;;;5075446;28;20200;-81
2023/10/20 03:59:06;;;;;;;11.73;5.70;;;26.20;99.90;;;;;;5053198;28;20208;-81
2023/10/20 04:01:39;;;;;;;13.43;6.00;;;26.10;99.90;;;;;;5050701;28;20224;-79
2023/10/20 04:04:11;;;;;;;9.80;5.28;;;26.30;99.90;;;;;;5054112;28;20200;-81
2023/10/20 04:06:45;;;;;;;9.02;5.20;;;26.20;99.90;;;;;;5053599;28;20618;-81
2023/10/20 04:09:17;;;;;;;8.10;5.10;;;26.30;99.90;;;;;;5054025;28;20204;-83
2023/10/20 04:11:49;;;;;;;8.05;5.40;;;26.10;99.90;;;;;;5052690;28;20705;-82
2023/10/20 04:14:25;;;;;;;8.85;5.20;;;26.30;99.90;;;;;;5054828;28;20216;-81
2023/10/20 04:16:59;;;;;;;8.98;4.57;;;26.40;99.90;;;;;;5047685;28;20221;-81
2023/10/20 04:19:30;;;;;;;12.85;5.00;;;26.50;99.90;;;;;;5050970;28;20204;-80
2023/10/20 04:22:12;;;;;;;13.00;5.10;;;26.60;99.90;;;;;;5053451;28;20347;-80
2023/10/20 04:24:46;;;;;;;12.73;4.93;;;26.70;99.90;;;;;;5034708;28;20264;-80
2023/10/20 04:27:39;;;;;;;9.13;4.90;;;26.80;99.90;;;;;;5035255;28;20232;-80
2023/10/20 04:53:11;;;;;;;8.07;4.13;;;27.20;99.90;;;;;;5027147;28;20243;-79
2023/10/20 04:58:43;;;;;;;5.78;3.50;;;27.20;99.90;;;;;;5047172;28;20188;-78
2023/10/20 05:01:21;;;;;;;5.35;3.28;;;27.30;99.90;;;;;;5054133;28;20231;-79
2023/10/20 05:04:13;;;;;;;8.68;3.20;;;27.50;99.90;;;;;;5045724;28;20288;-79
2023/10/20 05:07:05;;;;;;;6.85;4.15;;;27.60;99.90;;;;;;5040714;28;20207;-79
2023/10/20 05:09:43;;;;;;;6.30;2.80;;;27.70;99.90;;;;;;5035341;28;20260;-78
2023/10/20 05:12:23;;;;;;;7.43;3.45;;;27.90;99.90;;;;;;5027372;28;20349;-77
2023/10/20 05:15:02;;;;;;;5.72;3.05;;;27.80;99.90;;;;;;5031359;28;20335;-78
2023/10/20 05:17:38;;;;;;;7.53;3.42;;;27.70;99.90;;;;;;5032430;28;20221;-79
2023/10/20 05:20:15;;;;;;;7.50;3.00;;;27.40;99.90;;;;;;5031225;28;20657;-78
2023/10/20 05:22:58;;;;;;;6.97;3.20;;;27.40;99.90;;;;;;5033404;28;20618;-80
2023/10/20 05:25:30;;;;;;;6.53;2.92;;;27.70;99.90;;;;;;5023795;28;20204;-80
2023/10/20 05:28:02;;;;;;;8.15;2.97;;;27.60;99.90;;;;;;5031071;28;20204;-79
2023/10/20 05:30:33;;;;;;;5.15;3.13;;;27.90;99.90;;;;;;5029311;28;20275;-79
2023/10/20 05:33:06;;;;;;;4.95;2.78;;;28.10;99.90;;;;;;5031850;28;20613;-80
2023/10/20 05:35:37;;;;;;;7.00;2.88;;;28.40;99.90;;;;;;5031157;28;20216;-79
2023/10/20 05:38:12;;;;;;;11.82;3.22;;;28.40;99.90;;;;;;5032334;28;20280;-79
2023/10/20 05:40:43;;;;;;;9.52;3.10;;;28.50;99.90;;;;;;5033041;28;20227;-79
2023/10/20 05:43:15;;;;;;;5.78;2.97;;;28.70;99.90;;;;;;5033934;28;20610;-80
2023/10/20 05:45:47;;;;;;;10.00;3.53;;;28.70;99.90;;;;;;5031561;28;20599;-78
2023/10/20 05:48:20;;;;;;;6.28;3.00;;;28.70;99.90;;;;;;5032192;28;20213;-79
2023/10/20 05:51:01;;;;;;;7.28;3.17;;;28.60;99.90;;;;;;5023233;28;20211;-80
2023/10/20 05:53:36;;;;;;;7.00;3.10;;;28.80;99.90;;;;;;5025925;28;20225;-81
2023/10/20 05:56:09;;;;;;;7.60;3.47;;;29.00;99.90;;;;;;5042220;28;20207;-79
2023/10/20 05:58:50;;;;;;;6.18;3.38;;;29.20;99.90;;;;;;5034044;28;20604;-78
2023/10/20 06:01:26;;;;;;;7.72;3.45;;;29.40;99.90;;;;;;5039043;28;20241;-79
2023/10/20 06:03:59;;;;;;;6.25;3.10;;;29.50;99.90;;;;;;5039254;28;20209;-79
2023/10/20 06:06:36;;;;;;;6.07;3.22;;;29.30;99.90;;;;;;5014651;28;20607;-79
2023/10/20 06:09:17;;;;;;;7.28;3.75;;;29.50;99.90;;;;;;5024400;28;20221;-80
2023/10/20 06:15:31;;;;;;;8.18;3.70;;;29.40;99.90;;;;;;5030127;28;20324;-79
2023/10/20 06:21:12;;;;;;;7.50;3.50;;;29.50;99.90;;;;;;5032127;28;20261;-79
2023/10/20 06:27:02;;;;;;;6.93;3.92;;;29.20;99.90;;;;;;5011987;28;20205;-79
2023/10/20 06:32:41;;;;;;;9.05;3.60;;;29.40;99.90;;;;;;5013497;28;20295;-79
2023/10/20 06:35:17;;;;;;;6.75;3.40;;;29.50;99.90;;;;;;5013279;28;20206;-79
2023/10/20 06:37:57;;;;;;;5.72;3.45;;;29.50;99.90;;;;;;5017911;28;20221;-77
2023/10/20 06:40:37;;;;;;;8.80;3.50;;;29.80;99.90;;;;;;5020520;28;20301;-78
2023/10/20 06:43:13;;;;;;;9.15;3.72;;;29.70;99.90;;;;;;5029907;28;20206;-78
2023/10/20 06:45:48;;;;;;;5.90;3.50;;;29.80;99.90;;;;;;5021717;28;20229;-78
2023/10/20 06:48:20;;;;;;;7.70;3.75;;;29.70;99.90;;;;;;5034992;28;20569;-78
2023/10/20 06:50:52;;;;;;;6.68;3.17;;;29.50;99.90;;;;;;5027350;28;20190;-78
2023/10/20 06:53:23;;;;;;;8.13;3.38;;;29.20;99.90;;;;;;5039698;28;20299;-78
2023/10/20 06:56:00;;;;;;;7.47;3.15;;;29.00;99.90;;;;;;5032316;28;20197;-78
2023/10/20 06:58:39;;;;;;;6.38;3.30;;;29.00;99.90;;;;;;5042489;28;20211;-77
2023/10/20 07:01:11;;;;;;;6.47;2.83;;;29.00;99.90;;;;;;5043660;28;20194;-79
2023/10/20 07:03:45;;;;;;;8.98;2.97;;;29.30;99.90;;;;;;5027659;28;20276;-79
2023/10/20 07:09:29;;;;;;;5.60;2.75;;;28.70;99.90;;;;;;5017362;28;20198;-79
2023/10/20 07:12:03;;;;;;;7.88;2.70;;;28.20;99.90;;;;;;5023795;28;20705;-78
2023/10/20 07:15:05;;;;;;;6.82;2.65;;;27.50;99.90;;;;;;5033179;28;20205;-78
2023/10/20 07:18:03;;;;;;;6.70;2.22;;;27.00;99.90;;;;;;5033748;28;20268;-78
2023/10/20 07:20:38;;;;;;;5.82;2.40;;;26.40;99.90;;;;;;5026856;28;20205;-79
2023/10/20 07:23:24;;;;;;;7.18;2.05;;;25.80;99.90;;;;;;5014690;28;20181;-79
2023/10/20 07:26:01;;;;;;;3.58;1.80;;;25.30;99.90;;;;;;5023748;28;20259;-79
2023/10/20 07:28:35;;;;;;;4.18;1.70;;;24.80;99.90;;;;;;5016086;28;20203;-79
2023/10/20 07:31:17;;;;;;;5.32;1.70;;;24.60;99.90;;;;;;5033860;28;20205;-78
2023/10/20 07:33:47;;;;;;;4.13;1.92;;;24.40;99.90;;;;;;5030727;28;20298;-78
2023/10/20 07:36:19;;;;;;;5.22;1.98;;;24.10;99.90;;;;;;5031092;28;20216;-78
2023/10/20 07:38:53;;;;;;;7.95;1.95;;;24.10;99.90;;;;;;5032520;28;20710;-79
2023/10/20 07:41:24;;;;;;;7.22;2.00;;;24.00;99.90;;;;;;5032165;28;20225;-79
2023/10/20 07:43:55;;;;;;;8.45;1.58;;;24.00;99.90;;;;;;5030035;28;20277;-79
2023/10/20 07:46:27;;;;;;;5.93;1.45;;;23.90;99.90;;;;;;5030055;28;20212;-78
2023/10/20 07:48:58;;;;;;;5.85;1.90;;;23.70;99.90;;;;;;5024757;28;20236;-79
2023/10/20 07:51:29;;;;;;;8.45;1.90;;;23.60;99.90;;;;;;5029776;28;20189;-79
2023/10/20 07:54:00;;;;;;;5.55;1.55;;;23.40;99.90;;;;;;5029347;28;20221;-79
2023/10/20 07:56:30;;;;;;;7.55;2.25;;;23.40;99.90;;;;;;5012223;28;20726;-79
2023/10/20 07:59:01;;;;;;;8.50;2.00;;;23.50;99.90;;;;;;5019700;28;20281;-79
2023/10/20 08:01:34;;;;;;;10.25;1.98;;;23.40;99.90;;;;;;5030611;28;20439;-79
2023/10/20 08:04:05;;;;;;;5.70;1.60;;;23.40;99.90;;;;;;5031435;28;20666;-78
2023/10/20 08:06:35;;;;;;;10.43;2.20;;;23.20;99.90;;;;;;5030589;28;20280;-79
2023/10/20 08:09:06;;;;;;;6.60;1.52;;;23.20;99.90;;;;;;5026953;28;20209;-78
2023/10/20 08:11:39;;;;;;;5.40;1.70;;;23.10;99.90;;;;;;5037637;28;20296;-78
2023/10/20 08:14:09;;;;;;;8.23;2.10;;;23.00;99.90;;;;;;5023820;28;20705;-78
2023/10/20 08:16:42;;;;;;;5.85;2.00;;;23.10;99.90;;;;;;5031253;28;20221;-78
2023/10/20 08:19:13;;;;;;;9.10;2.15;;;23.00;99.90;;;;;;5031855;28;20197;-78
2023/10/20 08:21:44;;;;;;;7.03;2.13;;;23.00;99.90;;;;;;5030118;28;20681;-78
2023/10/20 08:24:15;;;;;;;7.88;2.10;;;22.90;99.90;;;;;;5031733;28;20228;-77
2023/10/20 08:26:45;;;;;;;9.07;2.40;;;22.90;99.90;;;;;;5031437;28;20688;-78
2023/10/20 08:29:16;;;;;;;6.78;2.13;;;22.90;99.90;;;;;;5025631;28;20198;-79
2023/10/20 08:31:49;;;;;;;6.50;2.53;;;22.80;99.90;;;;;;5031312;28;20284;-77
2023/10/20 08:34:20;;;;;;;9.57;2.58;;;22.80;99.90;;;;;;5031996;28;20251;-78
2023/10/20 08:36:51;;;;;;;8.07;2.92;;;22.70;99.90;;;;;;5030473;28;20212;-78
2023/10/20 08:39:24;;;;;;;8.60;2.53;;;22.70;99.90;;;;;;5031597;28;20211;-77
2023/10/20 08:41:55;;;;;;;7.57;2.58;;;22.60;99.90;;;;;;5025524;28;20202;-77
2023/10/20 08:44:27;;;;;;;11.35;2.97;;;22.60;99.90;;;;;;5011400;28;20197;-78
2023/10/20 08:47:00;;;;;;;7.60;2.50;;;22.60;99.90;;;;;;5011110;28;20194;-77
2023/10/20 08:49:32;;;;;;;10.75;2.95;;;22.60;99.90;;;;;;5011649;28;20198;-78
2023/10/20 08:52:07;;;;;;;8.63;2.65;;;22.70;99.90;;;;;;5014363;28;20201;-77
2023/10/20 08:54:38;;;;;;;8.38;3.08;;;22.60;99.90;;;;;;5025086;28;20303;-78
2023/10/20 08:57:09;;;;;;;8.38;2.30;;;22.50;99.90;;;;;;5030476;28;20204;-77
2023/10/20 09:00:03;;;;;;;10.93;3.08;;;22.50;99.90;;;;;;5031740;28;20276;-78
2023/10/20 09:02:42;;;;;;;7.15;2.80;;;22.50;99.90;;;;;;5027209;28;20194;-78
2023/10/20 09:05:14;;;;;;;9.63;3.10;;;22.50;99.90;;;;;;5030100;28;20205;-78
2023/10/20 09:07:59;;;;;;;8.75;2.95;;;22.50;99.90;;;;;;5031188;28;20293;-78
2023/10/20 09:10:30;;;;;;;9.75;3.10;;;22.40;99.90;;;;;;5033292;28;20224;-78
2023/10/20 09:13:00;;;;;;;8.07;3.17;;;22.40;99.90;;;;;;5040405;28;20201;-78
2023/10/20 09:15:31;;;;;;;9.63;2.97;;;22.40;99.90;;;;;;5039162;28;20198;-77
2023/10/20 09:18:04;;;;;;;10.90;3.25;;;22.50;99.90;;;;;;5032744;28;20203;-78
2023/10/20 09:20:35;;;;;;;9.65;2.70;;;22.40;99.90;;;;;;5034484;28;20272;-78
2023/10/20 09:23:12;;;;;;;8.75;2.58;;;22.40;99.90;;;;;;5031030;28;20203;-78
2023/10/20 09:25:43;;;;;;;7.90;2.70;;;22.40;99.90;;;;;;5013421;28;20211;-78
2023/10/20 09:28:13;;;;;;;9.18;2.88;;;22.40;99.90;;;;;;5015479;28;20202;-77
2023/10/20 09:30:45;;;;;;;9.77;2.80;;;22.40;99.90;;;;;;5030553;28;20189;-79
2023/10/20 09:33:18;;;;;;;8.85;2.80;;;22.30;99.90;;;;;;5032331;28;20221;-78
2023/10/20 09:35:52;;;;;;;8.80;2.70;;;22.20;99.90;;;;;;5034108;28;20725;-78
2023/10/20 09:38:28;;;;;;;7.97;2.20;;;22.30;99.90;;;;;;5032689;28;20205;-78
2023/10/20 09:41:11;;;;;;;7.55;2.72;;;22.20;99.90;;;;;;5025991;28;20209;-77
2023/10/20 09:43:52;;;;;;;10.25;2.70;;;22.30;99.90;;;;;;5035833;28;20212;-78
2023/10/20 09:46:45;;;;;;;10.30;2.63;;;22.30;99.90;;;;;;5036866;28;20201;-78
2023/10/20 09:49:22;;;;;;;7.55;2.45;;;22.30;99.90;;;;;;5025874;28;20662;-78
2023/10/20 09:51:53;;;;;;;7.72;2.50;;;22.30;99.90;;;;;;5026224;28;20200;-77
2023/10/20 09:54:26;;;;;;;7.63;2.55;;;22.30;99.90;;;;;;5013737;28;20232;-78
2023/10/20 09:56:57;;;;;;;12.07;2.42;;;22.20;99.90;;;;;;5028390;28;20224;-78
2023/10/20 09:59:30;;;;;;;8.23;2.28;;;22.20;99.90;;;;;;5030206;28;20209;-78
2023/10/20 10:02:02;;;;;;;12.23;2.50;;;22.20;99.90;;;;;;5024743;28;20251;-78
2023/10/20 10:04:36;;;;;;;8.88;2.30;;;22.30;99.90;;;;;;5032106;28;20189;-78
2023/10/20 10:07:07;;;;;;;9.35;2.50;;;22.20;99.90;;;;;;5030891;28;20604;-78
2023/10/20 10:09:49;;;;;;;8.13;2.10;;;22.20;99.90;;;;;;5014374;28;20289;-78
2023/10/20 10:12:24;;;;;;;8.05;2.25;;;22.20;99.90;;;;;;5021162;28;20197;-77
2023/10/20 10:15:07;;;;;;;6.10;2.30;;;22.20;99.90;;;;;;5040031;28;20228;-79
2023/10/20 10:17:49;;;;;;;7.30;2.30;;;22.20;99.90;;;;;;5052510;28;20231;-78
2023/10/20 10:20:29;;;;;;;8.07;2.40;;;22.20;99.90;;;;;;5041989;28;20205;-78
2023/10/20 10:23:06;;;;;;;7.30;1.85;;;22.20;99.90;;;;;;5037615;28;20204;-78
2023/10/20 10:25:41;;;;;;;6.28;2.05;;;22.20;99.90;;;;;;5037103;28;20281;-78
2023/10/20 10:28:13;;;;;;;10.00;2.08;;;22.20;99.90;;;;;;5037826;28;20199;-79
2023/10/20 10:30:45;;;;;;;7.78;2.25;;;22.20;99.90;;;;;;5036168;28;20193;-79
2023/10/20 10:33:21;;;;;;;7.82;2.10;;;22.20;99.90;;;;;;5034365;28;20200;-79
2023/10/20 10:36:05;;;;;;;8.10;2.20;;;22.20;99.90;;;;;;5034097;28;20288;-78
2023/10/20 10:38:45;;;;;;;8.77;1.80;;;22.20;99.90;;;;;;5032687;28;20190;-77
2023/10/20 10:41:15;;;;;;;10.02;2.40;;;22.10;99.90;;;;;;5035700;28;20430;-78
2023/10/20 10:43:46;;;;;;;9.82;2.13;;;22.10;99.90;;;;;;5035590;28;20670;-78
2023/10/20 10:46:17;;;;;;;10.13;2.25;;;22.10;99.90;;;;;;5033275;28;20207;-78
2023/10/20 10:48:48;;;;;;;10.45;2.20;;;22.00;99.90;;;;;;5033537;28;20201;-77
2023/10/20 10:51:22;;;;;;;6.90;2.03;;;22.00;99.90;;;;;;5019386;28;20292;-78
2023/10/20 10:53:55;;;;;;;6.47;2.00;;;22.00;99.90;;;;;;5021387;28;20221;-78
2023/10/20 10:56:26;;;;;;;5.05;1.77;;;21.90;99.90;;;;;;5032704;28;20194;-77
2023/10/20 10:58:57;;;;;;;9.05;2.08;;;21.90;99.90;;;;;;5033194;28;20284;-77
2023/10/20 11:01:29;;;;;;;9.05;2.22;;;21.90;99.90;;;;;;5033469;28;20205;-78
2023/10/20 11:04:00;;;;;;;8.32;2.20;;;21.90;99.90;;;;;;5032075;28;20208;-77
2023/10/20 11:06:35;;;;;;;9.00;2.13;;;21.80;99.90;;;;;;5032746;28;20284;-77
2023/10/20 11:09:10;;;;;;;5.47;1.85;;;21.80;99.90;;;;;;5015095;28;20197;-77
2023/10/20 11:11:45;;;;;;;10.00;2.30;;;21.80;99.90;;;;;;5027458;28;20268;-78
2023/10/20 11:14:19;;;;;;;7.45;2.00;;;21.80;99.90;;;;;;5032566;28;20339;-77
2023/10/20 11:16:51;;;;;;;7.35;2.03;;;21.80;99.90;;;;;;5032715;28;20229;-77
2023/10/20 11:19:22;;;;;;;7.25;1.88;;;21.80;99.90;;;;;;5017124;28;20209;-77
2023/10/20 11:21:55;;;;;;;8.25;1.83;;;21.80;99.90;;;;;;5027657;28;20182;-77
2023/10/20 11:24:34;;;;;;;9.23;2.17;;;21.80;99.90;;;;;;5034187;28;20201;-77
2023/10/20 11:27:07;;;;;;;11.77;2.50;;;21.80;99.90;;;;;;5031327;28;20232;-77
2023/10/20 11:29:39;;;;;;;6.90;2.00;;;21.80;99.90;;;;;;5032735;28;20228;-77
2023/10/20 11:32:13;;;;;;;9.43;2.40;;;21.80;99.90;;;;;;5031921;28;20567;-76
2023/10/20 11:34:44;;;;;;;8.68;2.10;;;21.80;99.90;;;;;;5031890;28;20225;-78
2023/10/20 11:37:17;;;;;;;9.43;2.30;;;21.70;99.90;;;;;;5032285;28;20225;-78
2023/10/20 11:39:47;;;;;;;9.77;2.17;;;21.70;99.90;;;;;;5028892;28;20217;-78
2023/10/20 11:42:18;;;;;;;8.98;2.10;;;21.70;99.90;;;;;;5013001;28;20206;-78
2023/10/20 11:44:49;;;;;;;9.52;1.90;;;21.70;99.90;;;;;;5019975;28;20201;-77
2023/10/20 11:47:20;;;;;;;9.57;1.98;;;21.70;99.90;;;;;;5031797;28;20194;-77
2023/10/20 11:49:54;;;;;;;10.48;2.08;;;21.70;99.90;;;;;;5018250;28;20260;-77
2023/10/20 11:52:27;;;;;;;9.27;2.10;;;21.70;99.90;;;;;;5021026;28;20199;-77
2023/10/20 11:54:57;;;;;;;12.95;2.60;;;21.70;99.90;;;;;;5030558;28;20221;-78
2023/10/20 11:57:28;;;;;;;9.38;1.77;;;21.70;99.90;;;;;;5030387;28;20197;-78
2023/10/20 11:59:59;;;;;;;10.05;2.38;;;21.70;99.90;;;;;;5031433;28;20657;-78
2023/10/20 12:02:31;;;;;;;5.97;2.05;;;21.70;99.90;;;;;;5030187;28;20649;-78
2023/10/20 12:05:02;;;;;;;7.63;1.83;;;21.60;99.90;;;;;;5031287;28;20204;-77
2023/10/20 12:07:35;;;;;;;9.50;2.17;;;21.60;99.90;;;;;;5026559;28;20196;-78
2023/10/20 12:10:06;;;;;;;6.72;1.70;;;21.60;99.90;;;;;;5031774;28;20204;-77
2023/10/20 12:12:37;;;;;;;7.20;1.77;;;21.60;99.90;;;;;;5031371;28;20205;-77
2023/10/20 12:15:09;;;;;;;10.80;2.28;;;21.50;99.90;;;;;;5030370;28;20257;-77
2023/10/20 12:17:40;;;;;;;9.90;2.10;;;21.50;99.90;;;;;;5026164;28;20228;-78
2023/10/20 12:20:13;;;;;;;8.23;1.95;;;21.40;99.90;;;;;;5031328;28;20197;-78
2023/10/20 12:22:45;;;;;;;7.47;1.83;;;21.40;99.90;;;;;;5017631;28;20198;-77
2023/10/20 12:25:16;;;;;;;8.93;1.70;;;21.40;99.90;;;;;;5039997;28;20265;-77
2023/10/20 12:27:48;;;;;;;6.72;1.63;;;21.40;99.90;;;;;;5034662;28;20234;-77
2023/10/20 12:30:19;;;;;;;10.75;1.77;;;21.30;99.90;;;;;;5012137;28;20204;-78
2023/10/20 12:32:50;;;;;;;10.25;1.88;;;21.40;99.90;;;;;;5011807;28;20289;-77
2023/10/20 12:35:21;;;;;;;9.75;2.03;;;21.30;99.90;;;;;;5014901;28;20256;-78
2023/10/20 12:37:54;;;;;;;8.57;1.90;;;21.30;99.90;;;;;;5030547;28;20228;-77
2023/10/20 12:40:25;;;;;;;12.90;1.90;;;21.30;99.90;;;;;;5018238;28;20226;-77
2023/10/20 12:42:56;;;;;;;10.32;1.90;;;21.30;99.90;;;;;;5012596;28;20564;-77
2023/10/20 12:45:28;;;;;;;7.63;1.77;;;21.30;99.90;;;;;;5031095;28;20670;-77
2023/10/20 12:47:58;;;;;;;11.60;2.28;;;21.30;99.90;;;;;;5028242;28;20216;-77
2023/10/20 12:50:32;;;;;;;8.50;2.00;;;21.30;99.90;;;;;;5031523;28;20204;-77
2023/10/20 12:53:07;;;;;;;8.93;2.03;;;21.30;99.90;;;;;;5032500;28;20255;-78
2023/10/20 12:55:38;;;;;;;9.00;1.85;;;21.20;99.90;;;;;;5030805;28;20640;-78
2023/10/20 12:58:08;;;;;;;9.65;2.03;;;21.20;99.90;;;;;;5030873;28;20700;-78
2023/10/20 13:00:39;;;;;;;6.57;1.83;;;21.20;99.90;;;;;;5031102;28;20197;-77
2023/10/20 13:03:11;;;;;;;9.20;1.95;;;21.20;99.90;;;;;;5030785;28;20194;-77
2023/10/20 13:05:42;;;;;;;12.18;2.42;;;21.20;99.90;;;;;;5029641;28;20716;-77
2023/10/20 13:08:15;;;;;;;6.90;1.63;;;21.20;99.90;;;;;;5019863;28;20190;-77
2023/10/20 13:10:47;;;;;;;10.80;2.25;;;21.20;99.90;;;;;;5025521;28;20213;-77
2023/10/20 13:13:18;;;;;;;9.77;2.38;;;21.10;99.90;;;;;;5029373;28;20232;-77
2023/10/20 13:15:49;;;;;;;9.38;2.00;;;21.10;99.90;;;;;;5027997;28;20221;-77
2023/10/20 13:18:20;;;;;;;7.65;1.90;;;21.10;99.90;;;;;;5020637;28;20198;-77
2023/10/20 13:20:51;;;;;;;9.18;2.15;;;21.10;99.90;;;;;;5028809;28;20201;-78
2023/10/20 13:23:24;;;;;;;9.38;2.00;;;21.10;99.90;;;;;;5027895;28;20194;-77
2023/10/20 13:26:04;;;;;;;7.70;1.90;;;21.10;99.90;;;;;;5029264;28;20205;-77
2023/10/20 13:28:35;;;;;;;8.02;1.60;;;21.10;99.90;;;;;;5024777;28;20197;-77
2023/10/20 13:31:06;;;;;;;6.82;1.70;;;21.00;99.90;;;;;;5038166;28;20643;-77
2023/10/20 13:33:37;;;;;;;8.30;1.80;;;21.00;99.90;;;;;;5030499;28;20197;-77
2023/10/20 13:36:10;;;;;;;9.40;1.83;;;21.00;99.90;;;;;;5030038;28;20228;-77
2023/10/20 13:38:43;;;;;;;9.52;1.98;;;21.10;99.90;;;;;;5029249;28;20231;-77
2023/10/20 13:41:13;;;;;;;10.10;2.10;;;21.00;99.90;;;;;;5030837;28;20594;-77
2023/10/20 13:43:44;;;;;;;5.43;1.60;;;21.00;99.90;;;;;;5030066;28;20682;-78
2023/10/20 13:46:16;;;;;;;9.93;2.20;;;21.00;99.90;;;;;;5026904;28;20205;-78
2023/10/20 13:48:47;;;;;;;9.10;1.95;;;21.00;99.90;;;;;;5031478;28;20641;-77
2023/10/20 13:51:17;;;;;;;10.98;2.03;;;21.00;99.90;;;;;;5034314;28;20200;-76
2023/10/20 13:53:50;;;;;;;7.50;2.00;;;21.00;99.90;;;;;;5033525;28;20200;-77
2023/10/20 13:56:21;;;;;;;8.43;2.08;;;20.90;99.90;;;;;;5014516;28;20316;-77
2023/10/20 13:58:52;;;;;;;8.15;1.70;;;20.90;99.90;;;;;;5027236;28;20287;-77
2023/10/20 14:01:23;;;;;;;9.73;2.45;;;20.90;99.90;;;;;;5033135;28;20576;-77
2023/10/20 14:03:57;;;;;;;9.25;2.10;;;20.90;99.90;;;;;;5033945;28;20672;-77
2023/10/20 14:06:29;;;;;;;11.85;2.13;;;20.90;99.90;;;;;;5030788;28;20192;-77
2023/10/20 14:09:03;;;;;;;9.00;1.80;;;20.80;99.90;;;;;;5031374;28;20193;-78
2023/10/20 14:11:34;;;;;;;11.20;2.35;;;20.80;99.90;;;;;;5032940;28;20201;-76
2023/10/20 14:14:05;;;;;;;8.20;1.88;;;20.80;99.90;;;;;;5014171;28;20662;-77